createdAt,value
2022-12-20T00:00:12.123Z,101052.25
2022-12-20T00:02:58.795Z,101059.00
2022-12-20T00:05:45.479Z,101055.28
2022-12-20T00:08:32.323Z,101043.13
2022-12-20T00:11:18.972Z,101032.34
2022-12-20T00:14:05.598Z,101042.97
2022-12-20T00:16:52.303Z,101034.13
2022-12-20T00:19:39.055Z,101024.53
2022-12-20T00:22:25.672Z,101017.41
2022-12-20T00:25:12.507Z,101013.72
2022-12-20T00:27:59.104Z,101007.47
2022-12-20T00:30:45.669Z,100995.47
2022-12-20T00:33:32.768Z,100987.06
2022-12-20T00:36:19.650Z,100970.34
2022-12-20T00:39:06.280Z,100975.06
2022-12-20T00:41:52.898Z,100971.22
2022-12-20T00:44:39.530Z,100992.66
2022-12-20T00:47:26.117Z,101004.66
2022-12-20T00:50:13.603Z,100997.06
2022-12-20T00:53:00.308Z,101002.28
2022-12-20T00:55:46.967Z,101021.16
2022-12-20T00:58:34.352Z,101007.97
2022-12-20T01:01:22.869Z,101014.34
2022-12-20T01:04:09.598Z,101021.44
2022-12-20T01:06:56.219Z,101021.44
2022-12-20T01:09:42.828Z,101020.09
2022-12-20T01:12:29.462Z,101026.16
2022-12-20T01:15:16.258Z,101027.88
2022-12-20T01:18:02.969Z,101030.28
2022-12-20T01:20:49.555Z,101032.47
2022-12-20T01:23:36.317Z,101027.25
2022-12-20T01:26:24.350Z,101021.31
2022-12-20T01:29:10.987Z,101016.09
2022-12-20T01:31:57.665Z,101024.38
2022-12-20T01:34:44.344Z,101007.97
2022-12-20T01:37:31.223Z,101011.03
2022-12-20T01:40:17.945Z,101013.03
2022-12-20T01:43:04.622Z,101014.41
2022-12-20T01:45:51.358Z,101011.66
2022-12-20T01:48:38.508Z,101004.94
2022-12-20T01:51:25.796Z,101006.78
2022-12-20T01:54:15.860Z,100996.09
2022-12-20T01:57:04.823Z,100997.91
2022-12-20T01:59:52.441Z,101003.50
2022-12-20T02:02:40.196Z,101001.25
2022-12-20T02:05:26.890Z,100998.03
2022-12-20T02:08:16.364Z,100998.19
2022-12-20T02:11:14.983Z,100998.19
2022-12-20T02:14:11.916Z,100996.50
2022-12-20T02:17:21.754Z,100994.00
2022-12-20T02:20:08.512Z,100991.03
2022-12-20T02:22:58.124Z,100991.09
2022-12-20T02:25:47.519Z,100973.44
2022-12-20T02:28:45.430Z,100973.44
2022-12-20T02:31:42.619Z,100967.25
2022-12-20T02:34:30.958Z,100960.19
2022-12-20T02:37:17.567Z,100957.34
2022-12-20T02:40:05.211Z,100960.56
2022-12-20T02:42:53.932Z,100959.22
2022-12-20T02:45:40.533Z,100968.66
2022-12-20T02:48:29.597Z,100956.53
2022-12-20T02:51:17.580Z,100948.09
2022-12-20T02:54:04.488Z,100964.59
2022-12-20T02:56:55.809Z,100912.22
2022-12-20T02:59:49.858Z,100972.88
2022-12-20T03:03:00.675Z,100968.50
2022-12-20T03:05:48.159Z,100967.34
2022-12-20T03:08:34.777Z,100971.06
2022-12-20T03:11:21.387Z,100967.50
2022-12-20T03:14:08.108Z,100951.50
2022-12-20T03:16:54.844Z,100950.81
2022-12-20T03:19:41.462Z,100941.38
2022-12-20T03:22:28.330Z,100925.53
2022-12-20T03:25:14.950Z,100933.63
2022-12-20T03:28:01.520Z,100939.19
2022-12-20T03:30:48.276Z,100946.47
2022-12-20T03:33:34.902Z,100934.97
2022-12-20T03:36:23.862Z,100936.66
2022-12-20T03:39:10.501Z,100936.81
2022-12-20T03:41:57.109Z,100938.69
2022-12-20T03:44:43.768Z,100937.84
2022-12-20T03:47:30.482Z,100964.81
2022-12-20T03:50:17.122Z,100962.97
2022-12-20T03:53:03.787Z,100959.25
2022-12-20T03:55:50.448Z,100956.56
2022-12-20T03:58:37.159Z,100947.44
2022-12-20T04:01:25.418Z,100958.91
2022-12-20T04:04:13.552Z,100963.28
2022-12-20T04:07:00.156Z,100967.00
2022-12-20T04:09:46.858Z,100967.00
2022-12-20T04:12:33.485Z,100969.72
2022-12-20T04:15:20.141Z,100967.00
2022-12-20T04:18:06.723Z,100969.53
2022-12-20T04:20:53.908Z,100961.28
2022-12-20T04:23:41.293Z,100954.22
2022-12-20T04:26:28.101Z,100952.50
2022-12-20T04:29:15.034Z,100953.53
2022-12-20T04:32:01.748Z,100951.84
2022-12-20T04:34:48.302Z,100936.31
2022-12-20T04:37:34.904Z,100937.16
2022-12-20T04:40:21.505Z,100949.16
2022-12-20T04:43:08.132Z,100948.13
2022-12-20T04:45:57.924Z,100944.09
2022-12-20T04:49:00.563Z,100952.00
2022-12-20T04:51:47.244Z,100935.16
2022-12-20T04:54:33.829Z,100936.34
2022-12-20T04:57:20.461Z,100938.69
2022-12-20T05:00:07.365Z,100929.94
2022-12-20T05:02:54.092Z,100931.25
2022-12-20T05:05:40.820Z,100885.13
2022-12-20T05:08:27.449Z,100921.84
2022-12-20T05:11:14.148Z,100918.97
2022-12-20T05:14:00.741Z,100915.09
2022-12-20T05:16:47.341Z,100910.34
2022-12-20T05:19:33.933Z,100912.06
2022-12-20T05:22:39.028Z,100909.34
2022-12-20T05:25:44.247Z,100905.47
2022-12-20T05:28:31.612Z,100899.91
2022-12-20T05:31:18.677Z,100895.69
2022-12-20T05:34:05.269Z,100893.00
2022-12-20T05:36:51.848Z,100882.38
2022-12-20T05:39:38.827Z,100884.22
2022-12-20T05:42:25.493Z,100886.91
2022-12-20T05:45:12.116Z,100886.06
2022-12-20T05:47:59.145Z,100883.38
2022-12-20T05:50:46.429Z,100882.53
2022-12-20T05:53:33.113Z,100879.00
2022-12-20T05:56:19.708Z,100889.97
2022-12-20T05:59:06.318Z,100873.78
2022-12-20T06:01:52.975Z,100871.75
2022-12-20T06:04:39.818Z,100864.50
2022-12-20T06:07:28.926Z,100868.03
2022-12-20T06:10:15.634Z,100859.78
2022-12-20T06:13:02.873Z,100860.63
2022-12-20T06:15:49.478Z,100853.19
2022-12-20T06:18:36.138Z,100854.22
2022-12-20T06:21:23.205Z,100870.41
2022-12-20T06:24:09.903Z,100867.88
2022-12-20T06:26:56.718Z,100869.72
2022-12-20T06:29:49.307Z,100860.63
2022-12-20T06:32:35.928Z,100859.78
2022-12-20T06:35:22.507Z,100857.06
2022-12-20T06:38:09.064Z,100852.38
2022-12-20T06:40:55.724Z,100862.31
2022-12-20T06:43:42.399Z,100849.16
2022-12-20T06:46:30.326Z,100850.00
2022-12-20T06:49:16.997Z,100843.75
2022-12-20T06:52:03.637Z,100845.13
2022-12-20T06:54:50.285Z,100842.25
2022-12-20T06:57:36.886Z,100853.06
2022-12-20T07:00:24.000Z,100843.25
2022-12-20T07:03:10.911Z,100838.88
2022-12-20T07:05:57.740Z,100833.50
2022-12-20T07:08:44.556Z,100828.44
2022-12-20T07:11:31.237Z,100826.59
2022-12-20T07:14:17.833Z,100822.41
2022-12-20T07:17:05.788Z,100818.34
2022-12-20T07:19:52.468Z,100817.00
2022-12-20T07:22:39.059Z,100805.56
2022-12-20T07:25:25.782Z,100803.88
2022-12-20T07:28:12.618Z,100810.28
2022-12-20T07:31:03.455Z,100805.41
2022-12-20T07:33:50.243Z,100804.38
2022-12-20T07:36:36.871Z,100803.00
2022-12-20T07:39:23.672Z,100804.50
2022-12-20T07:42:11.647Z,100815.97
2022-12-20T07:44:58.422Z,100814.78
2022-12-20T07:47:45.029Z,100807.38
2022-12-20T07:50:32.516Z,100812.75
2022-12-20T07:53:20.146Z,100807.19
2022-12-20T07:56:07.786Z,100801.81
2022-12-20T07:58:58.393Z,100812.41
2022-12-20T08:01:45.445Z,100813.25
2022-12-20T08:04:33.542Z,100807.03
2022-12-20T08:07:20.246Z,100803.31
2022-12-20T08:10:08.280Z,100798.75
2022-12-20T08:12:55.337Z,100803.31
2022-12-20T08:15:42.023Z,100796.72
2022-12-20T08:18:28.644Z,100795.72
2022-12-20T08:21:15.605Z,100791.81
2022-12-20T08:24:02.316Z,100793.31
2022-12-20T08:26:48.972Z,100782.53
2022-12-20T08:29:35.603Z,100789.25
2022-12-20T08:32:22.220Z,100791.94
2022-12-20T08:35:08.875Z,100789.94
2022-12-20T08:37:55.515Z,100784.19
2022-12-20T08:40:42.104Z,100791.25
2022-12-20T08:43:28.746Z,100790.91
2022-12-20T08:46:15.391Z,100788.03
2022-12-20T08:49:02.057Z,100800.31
2022-12-20T08:51:48.823Z,100794.44
2022-12-20T08:54:35.525Z,100798.63
2022-12-20T08:57:22.135Z,100804.69
2022-12-20T09:00:09.087Z,100800.16
2022-12-20T09:02:55.827Z,100802.16
2022-12-20T09:05:47.130Z,100796.78
2022-12-20T09:08:34.473Z,100800.69
2022-12-20T09:11:25.643Z,100809.41
2022-12-20T09:14:12.320Z,100804.72
2022-12-20T09:16:58.894Z,100801.34
2022-12-20T09:19:45.476Z,100806.75
2022-12-20T09:22:32.089Z,100812.63
2022-12-20T09:25:18.725Z,100806.25
2022-12-20T09:28:05.908Z,100806.06
2022-12-20T09:30:52.572Z,100806.91
2022-12-20T09:33:39.404Z,100799.47
2022-12-20T09:36:26.954Z,100801.16
2022-12-20T09:39:13.605Z,100791.19
2022-12-20T09:42:00.478Z,100785.91
2022-12-20T09:44:47.147Z,100783.03
2022-12-20T09:47:35.743Z,100793.03
2022-12-20T09:50:28.690Z,100794.97
2022-12-20T09:53:33.990Z,100794.53
2022-12-20T09:56:26.496Z,100800.19
2022-12-20T09:59:14.882Z,100792.03
2022-12-20T10:02:19.492Z,100772.75
2022-12-20T10:05:20.362Z,100773.88
2022-12-20T10:08:15.536Z,100776.22
2022-12-20T10:11:18.572Z,100762.34
2022-12-20T10:14:28.257Z,100776.66
2022-12-20T10:17:20.893Z,100771.94
2022-12-20T10:20:16.060Z,100770.91
2022-12-20T10:23:15.220Z,100759.81
2022-12-20T10:26:01.892Z,100757.47
2022-12-20T10:28:53.864Z,100756.34
2022-12-20T10:31:41.446Z,100760.59
2022-12-20T10:34:34.916Z,100754.91
2022-12-20T10:37:24.149Z,100743.81
2022-12-20T10:40:39.349Z,100739.69
2022-12-20T10:43:40.082Z,100740.69
2022-12-20T10:46:38.570Z,100730.09
2022-12-20T10:49:40.752Z,100737.00
2022-12-20T10:52:27.366Z,100731.03
2022-12-20T10:55:37.231Z,100726.28
2022-12-20T10:58:26.950Z,100718.66
2022-12-20T11:01:15.292Z,100710.56
2022-12-20T11:04:01.919Z,100705.97
2022-12-20T11:06:48.628Z,100714.09
2022-12-20T11:09:36.296Z,100703.59
2022-12-20T11:12:23.381Z,100695.28
2022-12-20T11:15:11.600Z,100693.91
2022-12-20T11:18:01.887Z,100690.66
2022-12-20T11:20:55.397Z,100683.28
2022-12-20T11:23:45.033Z,100686.19
2022-12-20T11:26:34.421Z,100685.91
2022-12-20T11:29:30.230Z,100653.09
2022-12-20T11:32:33.859Z,100682.56
2022-12-20T11:35:40.340Z,100680.59
2022-12-20T11:38:45.890Z,100662.41
2022-12-20T11:41:45.833Z,100665.53
2022-12-20T11:44:32.405Z,100664.81
2022-12-20T11:47:29.381Z,100671.53
2022-12-20T11:50:41.186Z,100664.44
2022-12-20T11:53:53.917Z,100654.72
2022-12-20T11:56:44.714Z,100656.19
2022-12-20T11:59:38.676Z,100651.66
2022-12-20T12:02:58.545Z,100648.94
2022-12-20T12:05:54.388Z,100650.78
2022-12-20T12:08:44.941Z,100656.03
2022-12-20T12:12:05.064Z,100644.09
2022-12-20T12:14:58.449Z,100659.03
2022-12-20T12:17:48.394Z,100655.28
2022-12-20T12:20:53.141Z,100651.97
2022-12-20T12:23:57.895Z,100656.34
2022-12-20T12:26:44.518Z,100650.63
2022-12-20T12:29:33.155Z,100649.97
2022-12-20T12:32:32.363Z,100642.06
2022-12-20T12:35:30.966Z,100631.69
2022-12-20T12:38:26.831Z,100626.44
2022-12-20T12:41:37.035Z,100628.34
2022-12-20T12:44:26.971Z,100621.63
2022-12-20T12:47:33.838Z,100622.38
2022-12-20T12:50:46.886Z,100590.47
2022-12-20T12:53:38.247Z,100619.13
2022-12-20T12:56:43.682Z,100617.84
2022-12-20T12:59:34.241Z,100624.44
2022-12-20T13:02:26.413Z,100616.53
2022-12-20T13:05:13.350Z,100611.50
2022-12-20T13:08:01.108Z,100619.59
2022-12-20T13:10:47.907Z,100613.56
2022-12-20T13:13:34.633Z,100610.19
2022-12-20T13:17:02.137Z,100608.72
2022-12-20T13:19:35.947Z,100614.31
2022-12-20T13:22:24.050Z,100605.53
2022-12-20T13:25:30.570Z,100600.53
2022-12-20T13:28:21.877Z,100596.31
2022-12-20T13:31:09.808Z,100600.91
2022-12-20T13:34:00.083Z,100599.22
2022-12-20T13:36:46.682Z,100600.25
2022-12-20T13:39:34.196Z,100594.84
2022-12-20T13:42:38.086Z,100600.06
2022-12-20T13:45:26.227Z,100594.66
2022-12-20T13:48:16.026Z,100595.13
2022-12-20T13:51:02.699Z,100593.91
2022-12-20T13:53:53.881Z,100581.69
2022-12-20T13:56:43.568Z,100590.28
2022-12-20T13:59:32.188Z,100588.00
2022-12-20T14:02:20.247Z,100583.72
2022-12-20T14:05:13.673Z,100576.69
2022-12-20T14:08:05.922Z,100575.31
2022-12-20T14:10:52.652Z,100577.41
2022-12-20T14:13:39.934Z,100576.84
2022-12-20T14:16:27.882Z,100587.28
2022-12-20T14:19:15.267Z,100588.56
2022-12-20T14:22:03.819Z,100586.75
2022-12-20T14:24:50.509Z,100584.03
2022-12-20T14:27:38.487Z,100577.75
2022-12-20T14:30:45.549Z,100576.94
2022-12-20T14:33:39.053Z,100567.06
2022-12-20T14:36:25.638Z,100568.72
2022-12-20T14:39:26.701Z,100581.25
2022-12-20T14:42:13.952Z,100583.09
2022-12-20T14:45:04.494Z,100580.22
2022-12-20T14:47:55.191Z,100579.38
2022-12-20T14:50:50.485Z,100573.75
2022-12-20T14:53:39.222Z,100561.09
2022-12-20T14:56:31.716Z,100555.88
2022-12-20T14:59:24.667Z,100560.25
2022-12-20T15:02:30.086Z,100555.69
2022-12-20T15:05:35.534Z,100567.16
2022-12-20T15:08:27.271Z,100555.69
2022-12-20T15:11:22.809Z,100558.56
2022-12-20T15:14:18.207Z,100557.72
2022-12-20T15:17:09.615Z,100556.06
2022-12-20T15:19:56.766Z,100552.31
2022-12-20T15:22:43.338Z,100550.66
2022-12-20T15:25:31.581Z,100553.16
2022-12-20T15:28:19.707Z,100546.91
2022-12-20T15:31:06.402Z,100562.50
2022-12-20T15:33:58.039Z,100548.50
2022-12-20T15:36:44.630Z,100550.59
2022-12-20T15:39:31.414Z,100544.72
2022-12-20T15:42:20.101Z,100553.00
2022-12-20T15:45:07.088Z,100546.13
2022-12-20T15:47:54.734Z,100553.78
2022-12-20T15:50:43.458Z,100555.00
2022-12-20T15:53:34.012Z,100545.59
2022-12-20T15:56:22.631Z,100544.94
2022-12-20T15:59:40.310Z,100540.56
2022-12-20T16:02:23.916Z,100553.81
2022-12-20T16:05:11.693Z,100548.41
2022-12-20T16:07:58.292Z,100547.59
2022-12-20T16:10:46.106Z,100547.38
2022-12-20T16:13:32.956Z,100543.66
2022-12-20T16:16:21.265Z,100538.72
2022-12-20T16:19:08.225Z,100542.03
2022-12-20T16:21:54.848Z,100545.59
2022-12-20T16:24:41.531Z,100542.91
2022-12-20T16:27:28.405Z,100536.63
2022-12-20T16:30:15.145Z,100541.84
2022-12-20T16:33:02.049Z,100540.81
2022-12-20T16:35:48.692Z,100537.09
2022-12-20T16:38:35.280Z,100533.38
2022-12-20T16:41:27.502Z,100530.28
2022-12-20T16:44:15.533Z,100535.50
2022-12-20T16:47:02.270Z,100536.13
2022-12-20T16:49:52.999Z,100529.72
2022-12-20T16:52:40.418Z,100545.75
2022-12-20T16:55:27.669Z,100540.97
2022-12-20T16:58:14.399Z,100536.22
2022-12-20T17:01:01.103Z,100533.31
2022-12-20T17:03:47.838Z,100535.84
2022-12-20T17:06:34.543Z,100537.69
2022-12-20T17:12:26.368Z,100543.56
2022-12-20T17:15:24.034Z,100541.50
2022-12-20T17:18:12.287Z,100541.69
2022-12-20T17:21:01.783Z,100540.88
2022-12-20T17:23:49.955Z,100541.06
2022-12-20T17:26:37.306Z,100540.22
2022-12-20T17:29:25.395Z,100531.44
2022-12-20T17:32:22.904Z,100526.88
2022-12-20T17:35:22.157Z,100522.50
2022-12-20T17:38:09.506Z,100525.22
2022-12-20T17:40:56.074Z,100526.03
2022-12-20T17:43:43.080Z,100523.56
2022-12-20T17:46:33.187Z,100500.22
2022-12-20T17:49:20.472Z,100506.38
2022-12-20T17:52:12.276Z,100504.72
2022-12-20T17:54:58.852Z,100498.69
2022-12-20T17:57:45.566Z,100497.84
2022-12-20T18:00:38.923Z,100497.56
2022-12-20T18:06:34.202Z,100495.91
2022-12-20T18:09:21.452Z,100499.25
2022-12-20T18:12:09.474Z,100488.44
2022-12-20T18:14:56.289Z,100483.41
2022-12-20T18:17:42.947Z,100477.34
2022-12-20T18:20:29.552Z,100486.31
2022-12-20T18:23:16.129Z,100489.59
2022-12-20T18:26:13.062Z,100491.63
2022-12-20T18:29:01.344Z,100486.59
2022-12-20T18:31:48.188Z,100484.94
2022-12-20T18:34:34.852Z,100483.06
2022-12-20T18:37:21.826Z,100492.00
2022-12-20T18:40:08.909Z,100493.03
2022-12-20T18:42:58.475Z,100491.19
2022-12-20T18:45:47.786Z,100492.00
2022-12-20T18:48:34.700Z,100485.97
2022-12-20T18:51:23.258Z,100481.19
2022-12-20T18:54:12.050Z,100480.19
2022-12-20T18:56:58.966Z,100484.38
2022-12-20T18:59:45.979Z,100488.53
2022-12-20T19:02:33.082Z,100491.25
2022-12-20T19:05:19.935Z,100496.09
2022-12-20T19:08:06.578Z,100499.25
2022-12-20T19:10:53.263Z,100492.81
2022-12-20T19:13:40.431Z,100493.47
2022-12-20T19:16:34.457Z,100491.38
2022-12-20T19:19:21.631Z,100485.16
2022-12-20T19:22:08.306Z,100483.28
2022-12-20T19:24:56.654Z,100481.22
2022-12-20T19:27:43.313Z,100485.59
2022-12-20T19:30:30.370Z,100489.34
2022-12-20T19:33:17.144Z,100473.94
2022-12-20T19:36:10.292Z,100483.09
2022-12-20T19:39:00.215Z,100484.94
2022-12-20T19:42:05.933Z,100478.91
2022-12-20T19:44:53.802Z,100485.53
2022-12-20T19:47:40.448Z,100481.34
2022-12-20T19:50:27.024Z,100481.09
2022-12-20T19:53:13.628Z,100430.22
2022-12-20T19:56:00.342Z,100472.06
2022-12-20T19:58:48.005Z,100467.06
2022-12-20T20:01:34.745Z,100464.91
2022-12-20T20:04:21.915Z,100472.38
2022-12-20T20:07:09.101Z,100470.88
2022-12-20T20:09:55.695Z,100473.16
2022-12-20T20:12:42.324Z,100466.06
2022-12-20T20:15:29.045Z,100465.22
2022-12-20T20:18:16.600Z,100469.97
2022-12-20T20:21:12.220Z,100467.09
2022-12-20T20:23:59.390Z,100463.72
2022-12-20T20:26:46.482Z,100461.88
2022-12-20T20:29:33.100Z,100465.81
2022-12-20T20:32:19.761Z,100475.13
2022-12-20T20:35:06.552Z,100464.50
2022-12-20T20:37:53.245Z,100465.81
2022-12-20T20:40:40.075Z,100459.34
2022-12-20T20:43:26.901Z,100461.50
2022-12-20T20:46:15.057Z,100450.31
2022-12-20T20:49:01.737Z,100452.63
2022-12-20T20:51:48.383Z,100459.31
2022-12-20T20:54:35.300Z,100449.16
2022-12-20T20:57:21.898Z,100449.41
2022-12-20T21:00:08.949Z,100451.72
2022-12-20T21:02:56.273Z,100449.69
2022-12-20T21:08:50.097Z,100443.88
2022-12-20T21:11:36.952Z,100440.97
2022-12-20T21:14:43.840Z,100447.88
2022-12-20T21:17:31.146Z,100446.84
2022-12-20T21:20:23.817Z,100441.44
2022-12-20T21:23:12.488Z,100447.69
2022-12-20T21:25:59.302Z,100444.81
2022-12-20T21:28:45.990Z,100433.97
2022-12-20T21:31:32.678Z,100443.75
2022-12-20T21:34:19.420Z,100439.59
2022-12-20T21:37:06.875Z,100439.78
2022-12-20T21:39:53.640Z,100440.53
2022-12-20T21:42:40.342Z,100437.19
2022-12-20T21:45:26.929Z,100407.44
2022-12-20T21:48:13.499Z,100445.03
2022-12-20T21:51:09.916Z,100438.34
2022-12-20T21:53:57.904Z,100437.88
2022-12-20T21:56:44.608Z,100444.72
2022-12-20T21:59:31.300Z,100444.53
2022-12-20T22:02:18.028Z,100437.03
2022-12-20T22:05:04.953Z,100437.88
2022-12-20T22:07:51.671Z,100439.56
2022-12-20T22:10:38.339Z,100436.84
2022-12-20T22:13:24.970Z,100439.56
2022-12-20T22:16:18.864Z,100442.06
2022-12-20T22:19:05.601Z,100442.72
2022-12-20T22:21:57.738Z,100441.25
2022-12-20T22:24:45.004Z,100432.94
2022-12-20T22:27:31.649Z,100438.34
2022-12-20T22:30:18.372Z,100444.38
2022-12-20T22:33:04.967Z,100441.69
2022-12-20T22:35:51.565Z,100446.06
2022-12-20T22:38:38.534Z,100445.84
2022-12-20T22:41:27.121Z,100441.31
2022-12-20T22:44:13.705Z,100451.06
2022-12-20T22:47:00.307Z,100450.06
2022-12-20T22:49:46.938Z,100466.28
2022-12-20T22:52:34.008Z,100453.59
2022-12-20T22:55:20.707Z,100456.69
2022-12-20T22:58:07.342Z,100447.75
2022-12-20T23:01:00.827Z,100448.75
2022-12-20T23:03:48.015Z,100439.16
2022-12-20T23:06:34.747Z,100435.00
2022-12-20T23:09:23.509Z,100437.88
2022-12-20T23:12:29.014Z,100452.88
2022-12-20T23:15:34.523Z,100445.81
2022-12-20T23:18:21.115Z,100444.75
2022-12-20T23:21:26.466Z,100439.75
2022-12-20T23:24:13.464Z,100447.47
2022-12-20T23:27:00.124Z,100442.91
2022-12-20T23:29:46.722Z,100462.41
2022-12-20T23:32:33.358Z,100467.03
2022-12-20T23:35:20.297Z,100465.16
2022-12-20T23:38:07.510Z,100466.78
2022-12-20T23:40:54.147Z,100469.47
2022-12-20T23:43:40.862Z,100469.03
2022-12-20T23:46:27.569Z,100463.13
2022-12-20T23:49:14.225Z,100464.03
2022-12-20T23:52:00.796Z,100471.78
2022-12-20T23:54:47.396Z,100480.06
2022-12-20T23:57:34.006Z,100485.00
